Time;durP1;ratioP1;P1;durP2;ratioP2;P2;SDS_P1;SDS_P2;PMS_P1;PMS_P2;Temp;Humidity;BMP_temperature;BMP_pressure;BME280_temperature;BME280_humidity;BME280_pressure;Samples;Min_cycle;Max_cycle;Signal;HPM_P1;HPM_P2
2021/09/30 00:00:16;;;;;;;33.15;22.88;;;12.40;99.90;;;;;;4990629;28;20215;-78
2021/09/30 00:02:44;;;;;;;28.40;19.02;;;12.20;99.90;;;;;;5005319;28;20225;-78
2021/09/30 00:05:12;;;;;;;36.08;20.33;;;12.10;99.90;;;;;;4998734;28;20257;-79
2021/09/30 00:07:40;;;;;;;28.45;19.13;;;12.00;99.90;;;;;;4990297;28;20204;-78
2021/09/30 00:10:09;;;;;;;27.13;17.35;;;11.90;99.90;;;;;;5000757;28;20252;-79
2021/09/30 00:12:43;;;;;;;20.17;15.20;;;11.90;99.90;;;;;;4990187;28;20665;-77
2021/09/30 00:15:14;;;;;;;26.83;15.95;;;11.80;99.90;;;;;;5006876;28;20215;-79
2021/09/30 00:47:44;;;;;;;17.05;12.43;;;11.70;99.90;;;;;;5005915;28;20267;-78
2021/09/30 01:46:44;;;;;;;7.10;6.40;;;12.00;99.90;;;;;;5005361;28;20474;-78
2021/09/30 02:29:12;;;;;;;2.10;1.85;;;12.10;99.90;;;;;;5004850;28;20405;-78
2021/09/30 02:59:48;;;;;;;1.50;1.40;;;12.30;99.90;;;;;;5004465;28;20244;-77
2021/09/30 03:02:18;;;;;;;2.22;2.03;;;12.20;99.90;;;;;;5004183;28;20267;-79
2021/09/30 03:04:46;;;;;;;1.90;1.50;;;12.20;99.90;;;;;;5005537;28;20235;-78
2021/09/30 03:07:17;;;;;;;1.77;1.60;;;12.00;99.90;;;;;;5004155;28;20293;-78
2021/09/30 03:09:48;;;;;;;1.45;1.35;;;11.90;99.90;;;;;;5004423;28;20220;-80
2021/09/30 03:12:28;;;;;;;1.98;1.70;;;11.80;99.90;;;;;;5004895;28;20205;-79
2021/09/30 03:15:05;;;;;;;1.50;1.40;;;11.90;99.90;;;;;;5003825;28;20200;-79
2021/09/30 03:17:48;;;;;;;2.03;1.90;;;11.90;99.90;;;;;;5008435;28;20204;-77
2021/09/30 03:20:37;;;;;;;2.17;2.03;;;11.90;99.90;;;;;;4991017;28;20208;-77
2021/09/30 03:23:09;;;;;;;2.13;1.90;;;11.80;99.90;;;;;;5008814;28;20258;-78
2021/09/30 03:25:37;;;;;;;1.50;1.40;;;11.80;99.90;;;;;;4991348;28;20410;-78
2021/09/30 03:28:06;;;;;;;1.63;1.52;;;11.80;99.90;;;;;;4991090;28;20417;-77
2021/09/30 03:30:34;;;;;;;1.98;1.88;;;11.80;99.90;;;;;;5017616;28;20197;-78
2021/09/30 03:33:06;;;;;;;1.63;1.52;;;11.90;99.90;;;;;;4976101;28;20483;-77
2021/09/30 03:35:37;;;;;;;4.32;1.58;;;11.90;99.90;;;;;;5006065;28;20251;-78
2021/09/30 03:38:06;;;;;;;4.03;1.50;;;11.90;99.90;;;;;;5008333;28;20264;-78
2021/09/30 03:40:35;;;;;;;1.10;1.10;;;12.00;99.90;;;;;;4992471;28;20219;-79
2021/09/30 03:43:04;;;;;;;1.88;1.33;;;12.00;99.90;;;;;;5008152;28;20533;-77
2021/09/30 03:45:32;;;;;;;1.85;1.75;;;12.20;99.90;;;;;;5007680;28;20201;-78
2021/09/30 03:47:59;;;;;;;1.60;1.50;;;12.10;99.90;;;;;;5008482;28;20386;-78
2021/09/30 03:50:31;;;;;;;2.00;1.90;;;12.20;99.90;;;;;;5007897;28;20198;-78
2021/09/30 03:53:08;;;;;;;1.50;1.40;;;12.10;99.90;;;;;;4983909;28;20194;-78
2021/09/30 03:59:21;;;;;;;1.67;1.50;;;12.10;99.90;;;;;;5007639;28;20259;-78
2021/09/30 04:01:30;;;;;;;3.35;2.17;;;12.00;99.90;;;;;;4990859;28;20204;-78
2021/09/30 04:03:57;;;;;;;1.73;1.63;;;12.00;99.90;;;;;;5000168;28;20228;-78
2021/09/30 04:06:25;;;;;;;1.42;1.33;;;12.00;99.90;;;;;;5006987;28;20251;-78
2021/09/30 04:08:56;;;;;;;1.35;1.30;;;11.90;99.90;;;;;;5006667;28;20201;-79
2021/09/30 04:11:24;;;;;;;5.45;1.85;;;11.90;99.90;;;;;;5007086;28;20193;-77
2021/09/30 04:13:51;;;;;;;1.77;1.50;;;11.90;99.90;;;;;;4989397;28;20463;-78
2021/09/30 04:16:20;;;;;;;1.33;1.25;;;11.90;99.90;;;;;;4995446;28;20246;-78
2021/09/30 04:18:47;;;;;;;2.22;1.10;;;11.90;99.90;;;;;;5008258;28;20243;-78
2021/09/30 04:21:14;;;;;;;1.50;1.40;;;11.90;99.90;;;;;;5006705;28;20209;-78
2021/09/30 04:23:41;;;;;;;1.35;1.25;;;11.90;99.90;;;;;;5006799;28;20229;-80
2021/09/30 04:26:09;;;;;;;2.45;1.60;;;11.80;99.90;;;;;;5006099;28;20201;-78
2021/09/30 04:28:36;;;;;;;1.25;1.23;;;11.70;99.90;;;;;;5006712;28;20212;-77
2021/09/30 04:31:04;;;;;;;1.33;1.15;;;11.80;99.90;;;;;;5006032;28;20223;-80
2021/09/30 04:33:32;;;;;;;3.05;1.83;;;11.70;99.90;;;;;;5007417;28;20204;-80
2021/09/30 04:35:59;;;;;;;2.50;1.85;;;11.70;99.90;;;;;;5007918;28;20201;-77
2021/09/30 04:38:26;;;;;;;4.00;1.80;;;11.80;99.90;;;;;;5007249;28;20217;-78
2021/09/30 04:40:54;;;;;;;2.00;1.75;;;11.70;99.90;;;;;;5006794;28;20229;-78
2021/09/30 04:43:21;;;;;;;2.13;1.77;;;11.60;99.90;;;;;;5005916;28;20237;-79
2021/09/30 04:45:49;;;;;;;1.30;1.20;;;11.60;99.90;;;;;;5007158;28;20217;-78
2021/09/30 04:48:17;;;;;;;2.38;1.10;;;11.50;99.90;;;;;;4979158;28;20201;-80
2021/09/30 04:50:44;;;;;;;2.30;1.15;;;11.50;99.90;;;;;;4989975;28;20196;-78
2021/09/30 04:53:11;;;;;;;1.73;1.45;;;11.40;99.90;;;;;;5016069;28;20207;-76
2021/09/30 04:55:38;;;;;;;1.92;1.65;;;11.50;99.90;;;;;;5007744;28;20415;-77
2021/09/30 04:58:07;;;;;;;1.42;1.33;;;11.40;99.90;;;;;;4985996;28;20208;-78
2021/09/30 05:00:34;;;;;;;1.30;1.20;;;11.30;99.90;;;;;;4993898;28;20205;-78
2021/09/30 05:03:02;;;;;;;1.77;1.40;;;11.20;99.90;;;;;;5001531;28;20232;-77
2021/09/30 05:05:29;;;;;;;1.65;1.55;;;11.00;99.90;;;;;;5006267;28;20243;-78
2021/09/30 05:07:57;;;;;;;1.85;1.50;;;10.90;99.90;;;;;;5005031;28;20251;-79
2021/09/30 05:10:31;;;;;;;1.35;1.25;;;11.00;99.90;;;;;;5006270;28;20390;-79
2021/09/30 05:13:04;;;;;;;9.02;2.08;;;11.10;99.90;;;;;;4989003;28;20203;-79
2021/09/30 05:15:33;;;;;;;4.07;2.28;;;10.90;99.90;;;;;;5006210;28;20246;-78
2021/09/30 05:18:01;;;;;;;2.28;1.98;;;10.80;99.90;;;;;;4996876;28;20214;-78
2021/09/30 05:20:28;;;;;;;2.35;1.50;;;10.80;99.90;;;;;;5005122;28;20204;-77
2021/09/30 05:22:56;;;;;;;2.88;2.38;;;10.90;99.90;;;;;;5006334;28;20223;-78
2021/09/30 05:25:24;;;;;;;3.28;2.00;;;10.90;99.90;;;;;;5006207;28;20203;-78
2021/09/30 05:27:54;;;;;;;2.30;1.95;;;10.90;99.90;;;;;;5003597;28;20209;-78
2021/09/30 05:30:22;;;;;;;2.60;2.33;;;10.80;99.90;;;;;;4977428;28;20245;-78
2021/09/30 05:32:49;;;;;;;3.88;2.33;;;10.80;99.90;;;;;;5006206;28;20558;-78
2021/09/30 05:35:17;;;;;;;1.85;1.75;;;11.00;99.90;;;;;;5006260;28;20279;-77
2021/09/30 05:37:45;;;;;;;2.50;2.40;;;11.00;99.90;;;;;;5005062;28;20215;-78
2021/09/30 05:40:15;;;;;;;5.28;2.88;;;10.90;99.90;;;;;;4987328;28;20213;-79
2021/09/30 05:42:43;;;;;;;3.95;3.15;;;10.90;99.90;;;;;;5006066;28;21109;-79
2021/09/30 05:45:13;;;;;;;3.10;2.85;;;10.70;99.90;;;;;;4994117;28;20215;-77
2021/09/30 05:47:42;;;;;;;1.88;1.77;;;10.80;99.90;;;;;;5007324;28;20194;-78
2021/09/30 05:50:10;;;;;;;2.10;2.00;;;10.90;99.90;;;;;;5004548;28;20258;-78
2021/09/30 05:52:37;;;;;;;2.55;1.80;;;10.90;99.90;;;;;;4987286;28;20203;-78
2021/09/30 05:55:05;;;;;;;1.85;1.75;;;11.00;99.90;;;;;;5005736;28;20216;-78
2021/09/30 05:57:34;;;;;;;2.92;2.20;;;11.10;99.90;;;;;;5005485;28;20206;-78
2021/09/30 06:00:13;;;;;;;3.17;2.05;;;11.30;99.90;;;;;;4989156;28;20205;-78
2021/09/30 06:11:13;;;;;;;4.43;1.55;;;12.30;99.90;;;;;;5006398;28;20227;-79
2021/09/30 06:13:49;;;;;;;2.35;1.85;;;12.70;99.90;;;;;;5006571;28;20375;-79
2021/09/30 06:16:21;;;;;;;2.90;1.90;;;13.10;99.90;;;;;;4999142;28;20235;-79
2021/09/30 06:18:48;;;;;;;1.77;1.67;;;13.40;99.90;;;;;;5001631;28;20206;-79
2021/09/30 06:21:16;;;;;;;2.95;2.15;;;13.60;99.90;;;;;;5006936;28;20248;-79
2021/09/30 06:23:44;;;;;;;1.77;1.42;;;13.50;99.90;;;;;;5006448;28;20251;-79
2021/09/30 06:26:12;;;;;;;5.28;1.63;;;13.30;99.90;;;;;;5005553;28;20220;-79
2021/09/30 06:28:39;;;;;;;2.20;1.88;;;12.90;99.90;;;;;;5004512;28;20483;-79
2021/09/30 06:31:07;;;;;;;1.75;1.65;;;12.90;99.90;;;;;;4990951;28;20209;-78
2021/09/30 06:33:35;;;;;;;1.77;1.63;;;13.00;99.90;;;;;;4987314;28;20252;-78
2021/09/30 06:36:02;;;;;;;1.83;1.55;;;13.10;99.90;;;;;;5004257;28;20287;-77
2021/09/30 06:38:39;;;;;;;3.20;1.95;;;13.30;99.90;;;;;;5004436;28;20327;-78
2021/09/30 06:41:09;;;;;;;1.77;1.60;;;13.50;99.90;;;;;;5003841;28;20211;-77
2021/09/30 06:43:36;;;;;;;1.60;1.50;;;13.80;99.90;;;;;;5003131;28;20225;-78
2021/09/30 06:46:04;;;;;;;1.75;1.65;;;13.90;99.90;;;;;;5000118;28;20332;-78
2021/09/30 06:48:32;;;;;;;2.22;2.03;;;13.80;99.90;;;;;;5003875;28;20201;-78
2021/09/30 06:51:00;;;;;;;1.63;1.52;;;13.60;99.90;;;;;;4988928;28;20194;-78
2021/09/30 06:53:27;;;;;;;1.95;1.85;;;13.90;99.90;;;;;;5007048;28;20213;-77
2021/09/30 06:56:02;;;;;;;1.50;1.40;;;14.70;99.90;;;;;;4990539;28;20244;-77
2021/09/30 06:58:29;;;;;;;7.07;2.00;;;15.30;99.90;;;;;;4996561;28;20196;-78
2021/09/30 07:00:57;;;;;;;2.75;1.65;;;15.90;99.90;;;;;;5004776;28;20206;-76
2021/09/30 07:03:26;;;;;;;4.50;2.17;;;17.30;99.90;;;;;;4988114;28;20532;-78
2021/09/30 07:05:53;;;;;;;2.30;2.13;;;19.20;99.90;;;;;;4997127;28;20440;-76
2021/09/30 07:08:21;;;;;;;4.40;2.70;;;20.40;99.90;;;;;;4999733;28;20449;-78
2021/09/30 07:10:48;;;;;;;5.93;3.10;;;21.30;99.90;;;;;;4990813;28;20428;-77
2021/09/30 07:13:17;;;;;;;2.47;2.37;;;20.60;99.90;;;;;;5008030;28;20672;-76
2021/09/30 07:15:44;;;;;;;2.17;2.07;;;20.30;99.90;;;;;;5006841;28;20418;-78
2021/09/30 07:18:19;;;;;;;4.07;2.80;;;20.50;99.90;;;;;;5007851;28;20588;-80
2021/09/30 07:20:48;;;;;;;2.50;2.40;;;21.20;99.90;;;;;;5006725;28;20443;-80
2021/09/30 07:23:16;;;;;;;2.30;2.20;;;21.90;99.90;;;;;;5007532;28;20458;-78
2021/09/30 07:25:44;;;;;;;2.43;2.33;;;21.20;99.90;;;;;;5007878;28;20450;-80
2021/09/30 07:28:11;;;;;;;2.90;2.80;;;22.00;99.80;;;;;;5007019;28;20447;-79
2021/09/30 07:30:38;;;;;;;4.30;2.87;;;22.80;98.60;;;;;;4987100;28;20439;-80
2021/09/30 07:33:08;;;;;;;3.53;3.23;;;22.90;97.40;;;;;;5005509;28;20525;-78
2021/09/30 07:35:36;;;;;;;3.90;3.70;;;23.30;96.60;;;;;;4998659;28;20421;-77
2021/09/30 07:38:03;;;;;;;3.33;3.03;;;23.50;94.40;;;;;;5006930;28;20440;-79
2021/09/30 07:40:31;;;;;;;3.67;3.47;;;23.80;93.80;;;;;;5005197;28;20486;-79
2021/09/30 07:43:05;;;;;;;3.40;3.30;;;24.10;94.20;;;;;;4982947;28;20878;-79
2021/09/30 07:45:32;;;;;;;4.07;3.70;;;24.00;92.30;;;;;;5007375;28;20807;-77
2021/09/30 07:47:59;;;;;;;3.87;3.60;;;23.60;92.30;;;;;;5007426;28;20414;-77
2021/09/30 07:50:26;;;;;;;3.77;3.47;;;24.40;91.60;;;;;;5006942;28;20439;-81
2021/09/30 07:52:54;;;;;;;3.40;3.30;;;25.20;91.00;;;;;;5006341;28;20448;-77
2021/09/30 07:55:21;;;;;;;4.23;3.60;;;24.50;91.40;;;;;;5006751;28;20434;-77
2021/09/30 07:57:48;;;;;;;6.73;3.80;;;25.00;88.50;;;;;;5003620;28;20432;-79
2021/09/30 08:00:15;;;;;;;3.40;3.30;;;24.60;89.20;;;;;;4989930;28;20431;-76
2021/09/30 08:02:42;;;;;;;3.90;3.60;;;23.70;90.50;;;;;;4992390;28;20466;-80
2021/09/30 08:05:10;;;;;;;3.50;3.30;;;23.60;90.90;;;;;;5006749;28;20436;-78
2021/09/30 08:07:37;;;;;;;3.40;3.30;;;24.10;90.30;;;;;;5005877;28;20435;-77
2021/09/30 08:10:05;;;;;;;3.93;3.50;;;24.20;89.60;;;;;;4998544;28;20490;-77
2021/09/30 08:12:33;;;;;;;3.70;3.60;;;24.10;87.70;;;;;;5005986;28;20607;-77
2021/09/30 08:15:00;;;;;;;5.00;4.50;;;24.10;90.20;;;;;;5006335;28;20439;-81
2021/09/30 08:17:28;;;;;;;3.83;3.73;;;25.00;88.00;;;;;;5006638;28;20474;-80
2021/09/30 08:19:55;;;;;;;4.60;4.30;;;25.30;85.50;;;;;;4997806;28;20442;-77
2021/09/30 08:22:22;;;;;;;4.37;3.90;;;24.80;86.80;;;;;;5001925;28;20743;-78
2021/09/30 08:24:49;;;;;;;4.03;3.93;;;25.20;86.90;;;;;;5006187;28;20483;-78
2021/09/30 08:27:16;;;;;;;4.17;3.97;;;25.10;82.20;;;;;;5006388;28;20440;-78
2021/09/30 08:29:44;;;;;;;3.90;3.80;;;24.40;84.50;;;;;;4985608;28;20641;-77
2021/09/30 08:32:12;;;;;;;5.47;5.10;;;25.70;83.50;;;;;;5004841;28;20792;-78
2021/09/30 08:34:39;;;;;;;4.27;3.87;;;26.10;80.30;;;;;;5006124;28;20514;-78
2021/09/30 08:37:07;;;;;;;4.50;4.20;;;25.20;82.40;;;;;;5004736;28;21093;-76
2021/09/30 08:39:35;;;;;;;4.23;4.10;;;25.40;85.50;;;;;;4987608;28;20820;-76
2021/09/30 08:42:04;;;;;;;5.17;4.83;;;25.80;81.20;;;;;;5005458;28;20443;-76
2021/09/30 08:44:34;;;;;;;5.53;5.23;;;25.50;80.50;;;;;;5005715;28;20513;-77
2021/09/30 08:47:03;;;;;;;4.97;4.50;;;25.10;84.10;;;;;;5003990;28;20500;-78
2021/09/30 08:49:33;;;;;;;4.67;4.47;;;25.40;79.40;;;;;;5002995;28;20446;-77
2021/09/30 08:52:01;;;;;;;4.20;4.00;;;25.60;81.10;;;;;;5007782;28;20483;-77
2021/09/30 08:54:29;;;;;;;5.43;5.00;;;26.00;78.60;;;;;;5005089;28;20470;-81
2021/09/30 08:56:56;;;;;;;4.57;4.47;;;25.80;77.90;;;;;;5004737;28;20451;-77
2021/09/30 08:59:30;;;;;;;4.43;4.27;;;23.90;80.60;;;;;;5004800;28;20439;-77
2021/09/30 09:02:14;;;;;;;4.60;4.40;;;23.40;83.00;;;;;;5002286;28;20443;-77
2021/09/30 09:04:53;;;;;;;4.90;4.70;;;23.40;84.40;;;;;;5004531;28;20475;-74
2021/09/30 09:07:29;;;;;;;4.50;4.23;;;23.60;84.90;;;;;;5004343;28;20744;-79
2021/09/30 09:09:58;;;;;;;5.10;4.90;;;23.60;85.20;;;;;;5004400;28;20435;-77
2021/09/30 09:12:31;;;;;;;5.83;5.10;;;23.50;83.90;;;;;;5004630;28;20436;-78
2021/09/30 09:15:00;;;;;;;4.37;4.17;;;22.60;87.50;;;;;;4986936;28;20434;-77
2021/09/30 09:17:28;;;;;;;6.13;4.20;;;21.70;91.10;;;;;;5007091;28;20455;-77
2021/09/30 09:20:00;;;;;;;4.73;4.40;;;20.70;91.70;;;;;;5005022;28;20419;-77
2021/09/30 09:22:34;;;;;;;4.70;4.50;;;19.90;92.90;;;;;;4992300;28;20474;-77
2021/09/30 09:25:16;;;;;;;4.03;3.93;;;19.20;95.20;;;;;;4986211;28;20464;-75
2021/09/30 09:27:59;;;;;;;4.80;3.97;;;19.00;94.60;;;;;;4993955;28;20443;-77
2021/09/30 09:30:45;;;;;;;3.90;3.70;;;19.00;94.10;;;;;;5004366;28;20437;-77
2021/09/30 09:33:24;;;;;;;4.13;3.93;;;18.50;94.80;;;;;;5004958;28;20414;-78
2021/09/30 09:36:09;;;;;;;3.67;3.37;;;18.00;96.30;;;;;;5065384;28;20918;-52
2021/09/30 09:38:43;;;;;;;3.63;3.43;;;17.80;97.60;;;;;;5048808;28;20437;-52
2021/09/30 09:41:14;;;;;;;3.20;3.10;;;17.60;97.60;;;;;;5056169;28;20451;-50
2021/09/30 09:43:44;;;;;;;3.40;3.20;;;17.50;97.70;;;;;;5056916;28;20702;-50
2021/09/30 09:46:17;;;;;;;4.13;3.80;;;17.60;97.90;;;;;;5051237;28;20478;-53
2021/09/30 09:49:01;;;;;;;4.57;3.57;;;17.50;98.60;;;;;;5055115;28;20637;-51
2021/09/30 09:51:37;;;;;;;3.20;3.10;;;17.40;98.80;;;;;;5049801;28;20430;-48
2021/09/30 09:54:15;;;;;;;4.00;3.70;;;17.40;98.80;;;;;;5057041;28;20481;-51
2021/09/30 09:56:44;;;;;;;6.77;4.10;;;17.40;97.90;;;;;;5051674;28;20659;-53
2021/09/30 09:59:11;;;;;;;3.90;3.60;;;17.40;98.40;;;;;;5056139;28;20414;-50
2021/09/30 10:01:41;;;;;;;3.90;3.80;;;17.30;98.50;;;;;;5056545;28;20444;-53
2021/09/30 10:04:10;;;;;;;3.90;3.77;;;17.20;98.80;;;;;;5057071;28;20425;-49
2021/09/30 10:06:38;;;;;;;7.30;3.70;;;17.30;99.30;;;;;;5053945;28;20526;-51
2021/09/30 10:09:07;;;;;;;3.60;3.30;;;17.30;99.00;;;;;;5056734;28;20486;-54
2021/09/30 10:11:36;;;;;;;3.37;3.17;;;17.40;98.50;;;;;;5055647;28;20481;-51
2021/09/30 10:14:07;;;;;;;3.57;3.37;;;17.30;98.30;;;;;;5066165;28;20419;-49
2021/09/30 10:16:37;;;;;;;3.63;3.43;;;17.30;98.60;;;;;;5056051;28;20461;-52
2021/09/30 10:19:07;;;;;;;4.90;4.03;;;17.10;98.00;;;;;;5054629;28;20792;-52
2021/09/30 10:21:37;;;;;;;3.33;3.23;;;17.10;97.30;;;;;;5056951;28;20420;-49
2021/09/30 10:24:16;;;;;;;3.80;3.50;;;17.00;96.90;;;;;;5056622;28;20649;-52
2021/09/30 10:26:46;;;;;;;3.37;3.00;;;17.00;97.60;;;;;;5056692;28;20489;-48
2021/09/30 10:29:44;;;;;;;3.10;3.00;;;16.90;98.50;;;;;;5055918;28;20424;-47
2021/09/30 10:32:17;;;;;;;4.17;3.87;;;16.90;98.80;;;;;;5055888;28;20537;-49
2021/09/30 10:34:47;;;;;;;4.13;3.77;;;16.90;99.20;;;;;;5055921;28;20845;-48
2021/09/30 10:37:35;;;;;;;5.07;4.67;;;17.00;99.20;;;;;;5055534;28;20402;-51
2021/09/30 10:40:23;;;;;;;3.17;3.00;;;17.00;99.50;;;;;;5056136;28;20413;-50
2021/09/30 10:42:57;;;;;;;4.30;3.07;;;17.10;99.00;;;;;;5052665;28;20435;-47
2021/09/30 10:45:37;;;;;;;2.87;2.77;;;17.10;98.90;;;;;;5054391;28;20452;-51
2021/09/30 10:48:26;;;;;;;7.00;6.30;;;17.30;99.30;;;;;;5043056;28;20418;-48
2021/09/30 10:51:05;;;;;;;3.50;3.20;;;17.40;98.40;;;;;;5042375;28;20409;-50
2021/09/30 10:53:44;;;;;;;3.47;3.27;;;17.50;97.80;;;;;;5036576;28;20448;-51
2021/09/30 10:56:30;;;;;;;3.33;3.17;;;17.30;98.00;;;;;;5042126;28;20662;-49
2021/09/30 10:59:07;;;;;;;3.57;3.37;;;17.10;98.00;;;;;;5042879;28;20475;-46
2021/09/30 11:01:41;;;;;;;4.00;3.07;;;16.90;98.30;;;;;;5038537;28;20434;-50
2021/09/30 11:04:08;;;;;;;3.30;3.20;;;16.80;98.30;;;;;;5041532;28;20414;-51
2021/09/30 11:06:37;;;;;;;3.00;2.90;;;16.40;98.40;;;;;;5041205;28;20485;-48
2021/09/30 11:09:18;;;;;;;3.10;2.90;;;16.30;98.40;;;;;;5041522;28;20416;-50
2021/09/30 11:12:05;;;;;;;2.70;2.60;;;16.30;98.70;;;;;;5041226;28;20429;-49
2021/09/30 11:14:33;;;;;;;3.47;3.17;;;16.40;98.30;;;;;;5037965;28;20503;-55
2021/09/30 11:17:00;;;;;;;3.43;3.13;;;16.40;98.80;;;;;;5040455;28;20771;-50
2021/09/30 11:19:48;;;;;;;3.03;2.80;;;16.50;98.60;;;;;;5041766;28;20442;-51
2021/09/30 11:22:31;;;;;;;3.07;2.83;;;16.50;97.30;;;;;;5041473;28;20453;-48
2021/09/30 11:24:58;;;;;;;2.70;2.60;;;16.60;97.40;;;;;;5041516;28;20480;-51
2021/09/30 11:27:31;;;;;;;3.20;3.10;;;16.60;98.70;;;;;;5041704;28;20481;-51
2021/09/30 11:30:21;;;;;;;2.80;2.70;;;16.80;98.40;;;;;;5040944;28;20416;-49
2021/09/30 11:32:49;;;;;;;5.67;2.83;;;16.90;98.00;;;;;;5041355;28;20414;-49
2021/09/30 11:35:17;;;;;;;2.77;2.57;;;17.00;97.50;;;;;;5041018;28;20614;-53
2021/09/30 11:37:45;;;;;;;2.80;2.70;;;17.00;96.10;;;;;;5041659;28;20413;-52
2021/09/30 11:40:16;;;;;;;2.90;2.70;;;17.00;97.70;;;;;;5040527;28;20504;-48
2021/09/30 11:42:50;;;;;;;5.30;3.10;;;17.20;97.50;;;;;;5041307;28;20436;-49
2021/09/30 11:45:21;;;;;;;4.10;2.87;;;17.40;96.80;;;;;;5041089;28;20426;-48
2021/09/30 11:47:50;;;;;;;2.97;2.87;;;17.50;96.50;;;;;;5041490;28;20640;-48
2021/09/30 11:50:21;;;;;;;3.60;3.30;;;17.70;95.90;;;;;;5041297;28;20427;-49
2021/09/30 11:53:15;;;;;;;3.73;3.43;;;18.00;96.30;;;;;;5040752;28;20728;-47
2021/09/30 11:55:42;;;;;;;3.07;2.97;;;18.10;95.80;;;;;;5035575;28;20503;-49
2021/09/30 11:58:13;;;;;;;3.30;3.03;;;18.20;95.70;;;;;;5039364;28;20465;-46
2021/09/30 12:00:46;;;;;;;2.70;2.60;;;18.20;95.30;;;;;;5040984;28;20474;-51
2021/09/30 12:03:19;;;;;;;3.27;3.07;;;18.10;94.90;;;;;;5040944;28;20413;-47
2021/09/30 12:05:50;;;;;;;5.90;3.77;;;17.80;94.80;;;;;;5039576;28;20435;-47
2021/09/30 12:08:18;;;;;;;3.07;2.87;;;17.70;95.30;;;;;;5040885;28;20505;-52
2021/09/30 12:10:45;;;;;;;3.33;2.80;;;17.80;96.20;;;;;;5041236;28;20419;-53
2021/09/30 12:13:21;;;;;;;2.80;2.70;;;17.70;95.00;;;;;;5037082;28;20419;-51
2021/09/30 12:15:49;;;;;;;3.10;3.00;;;17.50;96.40;;;;;;5040653;28;20502;-53
2021/09/30 12:18:22;;;;;;;3.47;3.27;;;17.50;96.40;;;;;;5040730;28;20456;-52
2021/09/30 12:20:56;;;;;;;4.40;3.27;;;17.50;96.10;;;;;;5041135;28;20764;-53
2021/09/30 12:23:26;;;;;;;3.30;3.13;;;17.40;96.40;;;;;;5040395;28;20432;-52
2021/09/30 12:25:54;;;;;;;3.20;3.00;;;17.30;96.80;;;;;;5040633;28;20467;-49
2021/09/30 12:28:22;;;;;;;3.00;2.80;;;17.30;96.40;;;;;;5041145;28;20419;-49
2021/09/30 12:30:49;;;;;;;4.07;3.87;;;17.00;96.30;;;;;;5040622;28;20422;-49
2021/09/30 12:33:17;;;;;;;6.33;3.47;;;16.90;96.90;;;;;;5040121;28;20451;-53
2021/09/30 12:35:45;;;;;;;3.70;3.50;;;16.90;96.50;;;;;;5042910;28;21662;-47
2021/09/30 12:38:20;;;;;;;3.43;3.23;;;16.90;97.10;;;;;;5040754;28;20601;-48
2021/09/30 12:40:54;;;;;;;3.73;3.43;;;17.20;96.70;;;;;;5040548;28;20603;-54
2021/09/30 12:43:30;;;;;;;3.83;3.53;;;17.30;95.80;;;;;;5040486;28;20463;-55
2021/09/30 12:46:00;;;;;;;3.07;2.93;;;17.40;96.20;;;;;;5035355;28;20478;-50
2021/09/30 12:48:29;;;;;;;3.17;3.07;;;17.40;96.40;;;;;;5040390;28;20410;-50
2021/09/30 12:51:01;;;;;;;3.90;3.70;;;17.40;97.40;;;;;;5040000;28;20415;-49
2021/09/30 12:53:30;;;;;;;3.17;2.90;;;17.40;96.50;;;;;;5036223;28;20440;-52
2021/09/30 12:56:09;;;;;;;3.40;3.20;;;17.40;95.40;;;;;;5040020;28;20487;-53
2021/09/30 12:58:41;;;;;;;2.70;2.60;;;17.30;96.00;;;;;;5039774;28;20583;-48
2021/09/30 13:01:35;;;;;;;3.10;3.00;;;17.40;96.10;;;;;;5040105;28;20433;-52
2021/09/30 13:04:12;;;;;;;3.60;3.30;;;17.50;94.90;;;;;;5039944;28;20412;-52
2021/09/30 13:06:52;;;;;;;3.20;3.00;;;17.50;94.90;;;;;;5039553;28;20641;-54
2021/09/30 13:09:40;;;;;;;3.00;2.77;;;17.40;95.00;;;;;;5032339;28;20474;-52
2021/09/30 13:12:15;;;;;;;3.10;2.90;;;17.30;95.10;;;;;;5039203;28;20426;-50
2021/09/30 13:14:55;;;;;;;2.83;2.73;;;17.20;95.20;;;;;;5039458;28;20414;-52
2021/09/30 13:17:24;;;;;;;2.80;2.70;;;17.10;95.70;;;;;;5040042;28;20432;-54
2021/09/30 13:19:52;;;;;;;3.00;2.90;;;17.10;96.00;;;;;;5039780;28;20412;-46
2021/09/30 13:22:28;;;;;;;3.60;3.30;;;17.00;96.80;;;;;;5031614;28;20487;-49
2021/09/30 13:24:57;;;;;;;3.80;3.50;;;16.80;96.50;;;;;;5025806;28;20432;-50
2021/09/30 13:27:30;;;;;;;4.00;3.80;;;16.80;96.80;;;;;;5025688;28;20671;-49
2021/09/30 13:29:57;;;;;;;3.20;3.00;;;16.70;97.50;;;;;;5023305;28;20644;-52
2021/09/30 13:32:27;;;;;;;3.00;2.90;;;16.60;97.20;;;;;;5031637;28;20448;-52
2021/09/30 13:34:56;;;;;;;3.60;3.50;;;16.70;97.20;;;;;;5038874;28;20501;-52
2021/09/30 13:37:25;;;;;;;3.37;3.27;;;17.00;97.10;;;;;;5033497;28;20437;-53
2021/09/30 13:39:56;;;;;;;3.17;2.97;;;17.40;97.00;;;;;;5039963;28;20435;-49
2021/09/30 13:42:25;;;;;;;2.73;2.63;;;17.60;96.40;;;;;;5039508;28;20442;-55
2021/09/30 13:44:54;;;;;;;3.57;3.43;;;18.00;95.20;;;;;;5039350;28;20427;-50
2021/09/30 13:47:23;;;;;;;3.60;3.40;;;18.00;94.90;;;;;;5037805;28;20415;-51
2021/09/30 13:49:50;;;;;;;4.00;3.70;;;18.00;95.40;;;;;;5023991;28;20647;-49
2021/09/30 13:52:18;;;;;;;5.23;3.00;;;17.80;94.80;;;;;;5022661;28;20436;-51
2021/09/30 13:54:46;;;;;;;3.43;3.33;;;17.70;95.60;;;;;;5022336;28;20421;-48
2021/09/30 13:57:13;;;;;;;5.00;3.80;;;17.80;95.80;;;;;;5021062;28;20482;-50
2021/09/30 13:59:41;;;;;;;4.73;3.13;;;17.50;95.40;;;;;;5023614;28;20467;-52
2021/09/30 14:02:30;;;;;;;3.00;2.90;;;17.30;96.10;;;;;;5026162;28;20436;-47
2021/09/30 14:04:57;;;;;;;3.10;3.00;;;17.30;95.90;;;;;;5025796;28;20620;-50
2021/09/30 14:07:25;;;;;;;2.90;2.80;;;17.60;95.60;;;;;;5025779;28;20413;-49
2021/09/30 14:09:53;;;;;;;2.90;2.80;;;17.70;96.20;;;;;;5029564;28;20420;-49
2021/09/30 14:12:22;;;;;;;4.10;3.80;;;17.60;95.90;;;;;;5036505;28;20431;-49
2021/09/30 14:14:49;;;;;;;3.70;3.60;;;17.50;96.40;;;;;;5036773;28;20837;-53
2021/09/30 14:17:16;;;;;;;3.70;3.50;;;17.50;96.20;;;;;;5039408;28;20428;-55
2021/09/30 14:19:44;;;;;;;4.30;4.03;;;17.50;95.80;;;;;;5029312;28;20411;-48
2021/09/30 14:22:10;;;;;;;4.20;3.93;;;17.60;96.00;;;;;;5041244;28;20767;-50
2021/09/30 14:24:37;;;;;;;3.60;3.50;;;17.80;95.60;;;;;;5043185;28;20423;-48
2021/09/30 14:27:05;;;;;;;4.43;4.10;;;17.90;95.20;;;;;;5042802;28;20435;-53
2021/09/30 14:29:33;;;;;;;3.40;3.20;;;18.00;95.00;;;;;;5042815;28;20440;-52
2021/09/30 14:32:01;;;;;;;3.50;3.20;;;18.20;94.60;;;;;;5029781;28;20416;-48
2021/09/30 14:34:28;;;;;;;3.30;3.20;;;18.10;95.30;;;;;;5038064;28;20449;-51
2021/09/30 14:36:56;;;;;;;4.00;3.70;;;17.80;95.90;;;;;;5042402;28;20457;-45
2021/09/30 14:39:23;;;;;;;3.13;3.03;;;17.80;96.20;;;;;;5041751;28;20408;-46
2021/09/30 14:41:50;;;;;;;3.10;3.00;;;17.70;95.60;;;;;;5040863;28;20787;-53
2021/09/30 14:44:21;;;;;;;3.00;2.80;;;17.50;96.10;;;;;;5041770;28;20466;-49
2021/09/30 14:46:48;;;;;;;3.43;3.30;;;17.40;95.70;;;;;;5041735;28;20682;-45
2021/09/30 14:49:15;;;;;;;2.80;2.70;;;17.20;96.30;;;;;;5042589;28;20647;-50
2021/09/30 14:51:42;;;;;;;3.43;3.13;;;17.00;96.50;;;;;;5042292;28;20443;-45
2021/09/30 14:54:10;;;;;;;3.07;2.87;;;17.10;97.10;;;;;;5041809;28;20446;-48
2021/09/30 14:56:37;;;;;;;3.20;2.90;;;17.40;97.10;;;;;;5041726;28;20459;-43
2021/09/30 14:59:04;;;;;;;3.40;3.10;;;17.30;97.40;;;;;;5041853;28;20439;-49
2021/09/30 15:01:32;;;;;;;2.80;2.60;;;17.10;95.70;;;;;;5042065;28;20412;-49
2021/09/30 15:03:59;;;;;;;2.60;2.50;;;16.90;96.60;;;;;;5038917;28;20474;-48
2021/09/30 15:06:34;;;;;;;3.10;3.00;;;16.80;95.90;;;;;;5042367;28;20433;-51
2021/09/30 15:09:02;;;;;;;4.40;2.30;;;16.80;96.10;;;;;;5042726;28;20440;-52
2021/09/30 15:11:29;;;;;;;2.80;2.70;;;16.70;96.30;;;;;;5042594;28;20456;-54
2021/09/30 15:13:57;;;;;;;2.97;2.87;;;16.60;96.00;;;;;;5043594;28;20481;-53
2021/09/30 15:16:26;;;;;;;2.70;2.60;;;16.50;96.50;;;;;;5041921;28;20628;-50
2021/09/30 15:19:02;;;;;;;3.40;3.10;;;16.40;97.30;;;;;;5042421;28;20615;-51
2021/09/30 15:21:29;;;;;;;2.50;2.40;;;16.20;98.00;;;;;;5039621;28;20664;-52
2021/09/30 15:24:01;;;;;;;2.80;2.70;;;16.30;98.10;;;;;;5051247;28;20450;-53
2021/09/30 15:26:30;;;;;;;2.23;2.13;;;16.20;98.20;;;;;;5043598;28;20435;-51
2021/09/30 15:28:57;;;;;;;2.70;2.60;;;16.30;98.10;;;;;;5028020;28;20439;-47
2021/09/30 15:31:26;;;;;;;4.10;2.67;;;16.30;97.70;;;;;;5025255;28;20530;-48
2021/09/30 15:33:55;;;;;;;2.87;2.73;;;16.10;98.70;;;;;;5022474;28;20419;-52
2021/09/30 15:36:25;;;;;;;2.10;2.07;;;16.10;98.40;;;;;;5028598;28;20516;-52
2021/09/30 15:38:57;;;;;;;2.93;2.60;;;16.10;98.50;;;;;;5040206;28;20439;-51
2021/09/30 15:41:24;;;;;;;5.72;3.75;;;16.10;98.60;;;;;;5032136;28;20459;-50
2021/09/30 15:43:52;;;;;;;5.20;4.70;;;16.10;99.70;;;;;;5039787;28;20635;-49
2021/09/30 15:46:19;;;;;;;3.00;2.80;;;16.00;99.90;;;;;;5035256;28;20218;-50
2021/09/30 15:48:47;;;;;;;2.20;2.10;;;16.00;99.90;;;;;;5039561;28;20777;-53